METAR Data
IDs: Format: Raw Decoded Include TAF

Data at: 1304 UTC 26 Feb 2021

LYVR 261300Z VRB03KT CAVOK 21/04 Q1025